»·PEaware :: N808MR KMRY-KBUR

N808MR :: KMRY-KBUR

FLIGHT INFORMATION

Flight Status: Arrived
Operator: Privately registered:
United States
More flights under this callsign
Pilot: Ryan L. (28399)
Aircraft: CESSNA 510 CITATION MUSTANG
(C510)
More flights by this aircraft type
Origin: KMRY Monterey Peninsula
United States
Destination: KBUR Bob Hope-Burbank
United States
More flights between these airports :: More routes between these airports
Route: +MRY5 SNS V248 PRB V25 RZS V386 FIM FERN7
File this flight plan on PilotEdge
Remarks:
Altitude:
(Current/Filed)
27,000ft
Speed:
(Current/Filed)
390kts
Departed: 21-Nov-20 08:49 AM
Arrived: 21-Nov-20 09:40 AM
Distance/Time
Traveled:
223nm/0:51
Distance/Time
To Go:
Arrived

Flight Plot

Page will automatically refresh every two minutes.

Flight plan parsing failed; only flown route is shown


Map Options




Map Legend


Flown Route
Filed Route
Departure Airport
Arrival Airport
Navaid (VOR, NDB)
Fix

Horizontal Profiles

Position Reports

Time Latitude Longitude Heading Altitude Ground
Speed
21-Nov-20 08:33 36.589313 -121.857980 305 260ft 0kts
21-Nov-20 08:34 36.589313 -121.857980 305 260ft 0kts
21-Nov-20 08:35 36.589313 -121.857980 305 260ft 0kts
21-Nov-20 08:36 36.589313 -121.857980 305 260ft 0kts
21-Nov-20 08:37 36.589313 -121.857980 305 260ft 0kts
21-Nov-20 08:38 36.589313 -121.857980 305 260ft 0kts
21-Nov-20 08:39 36.589313 -121.857980 305 260ft 0kts
21-Nov-20 08:40 36.589313 -121.857980 305 260ft 0kts
21-Nov-20 08:41 36.589313 -121.857980 305 260ft 0kts
21-Nov-20 08:42 36.589313 -121.857980 305 260ft 0kts
21-Nov-20 08:42 36.589313 -121.857980 305 260ft 0kts
21-Nov-20 08:44 36.589313 -121.857980 305 260ft 0kts
21-Nov-20 08:44 36.589313 -121.857980 305 260ft 0kts
21-Nov-20 08:46 36.589313 -121.857980 305 260ft 0kts
21-Nov-20 08:46 36.589313 -121.857980 305 260ft 0kts
21-Nov-20 08:47 36.589436 -121.855282 88 260ft 35kts
21-Nov-20 08:48 36.584915 -121.841118 112 260ft 52kts
21-Nov-20 08:49 36.582849 -121.834841 97 260ft 0kts
21-Nov-20 08:50 36.588375 -121.848452 291 379ft 155kts
21-Nov-20 08:51 36.628733 -121.893755 344 3643ft 245kts
21-Nov-20 08:52 36.694913 -121.918792 340 7689ft 269kts
21-Nov-20 08:53 36.723721 -121.995461 280 11764ft 261kts
21-Nov-20 08:54 36.737861 -122.084397 280 15219ft 265kts
21-Nov-20 08:55 36.791209 -122.129915 18 18071ft 312kts
21-Nov-20 08:56 36.808425 -122.028676 114 20287ft 347kts
21-Nov-20 08:57 36.769682 -121.915197 117 22271ft 363kts
21-Nov-20 08:58 36.729497 -121.797026 117 24037ft 378kts
21-Nov-20 08:59 36.688003 -121.674108 117 25602ft 391kts
21-Nov-20 09:00 36.633458 -121.558314 138 27000ft 388kts
21-Nov-20 09:01 36.559018 -121.454078 138 27250ft 420kts
21-Nov-20 09:02 36.479873 -121.342673 138 27245ft 436kts
21-Nov-20 09:03 36.399183 -121.228992 138 27234ft 440kts
21-Nov-20 09:04 36.317936 -121.114853 138 27241ft 442kts
21-Nov-20 09:05 36.236155 -121.000423 138 27251ft 444kts
21-Nov-20 09:06 36.153911 -120.885771 139 27257ft 446kts
21-Nov-20 09:07 36.065223 -120.784070 170 27252ft 413kts
21-Nov-20 09:08 35.956551 -120.740211 171 27259ft 412kts
21-Nov-20 09:09 35.847438 -120.696836 171 27262ft 413kts
21-Nov-20 09:10 35.738253 -120.653289 171 27261ft 413kts
21-Nov-20 09:11 35.631699 -120.596945 157 27266ft 429kts
21-Nov-20 09:12 35.530012 -120.520799 157 27263ft 430kts
21-Nov-20 09:13 35.427766 -120.444588 157 27229ft 430kts
21-Nov-20 09:14 35.325377 -120.368566 157 27183ft 431kts
21-Nov-20 09:15 35.223382 -120.293058 158 27173ft 428kts
21-Nov-20 09:16 35.121721 -120.218039 158 27178ft 427kts
21-Nov-20 09:17 35.019843 -120.143078 158 27180ft 427kts
21-Nov-20 09:18 34.918707 -120.068920 158 27179ft 424kts
21-Nov-20 09:19 34.817277 -119.994885 157 26583ft 431kts
21-Nov-20 09:20 34.715473 -119.920766 157 25091ft 423kts
21-Nov-20 09:21 34.615343 -119.847918 156 24169ft 417kts
21-Nov-20 09:22 34.518515 -119.771389 136 24130ft 433kts
21-Nov-20 09:23 34.484417 -119.627908 103 24160ft 450kts
21-Nov-20 09:24 34.460323 -119.481521 104 22678ft 427kts
21-Nov-20 09:25 34.436962 -119.344669 104 19710ft 399kts
21-Nov-20 09:26 34.415555 -119.220283 103 16630ft 369kts
21-Nov-20 09:27 34.396300 -119.109370 102 12615ft 312kts
21-Nov-20 09:28 34.378867 -119.009136 102 11007ft 330kts
21-Nov-20 09:29 34.360757 -118.904758 102 10862ft 284kts
21-Nov-20 09:30 34.341924 -118.816868 109 9285ft 267kts
21-Nov-20 09:31 34.315488 -118.730106 109 6301ft 273kts
21-Nov-20 09:32 34.288040 -118.646738 129 3966ft 253kts
21-Nov-20 09:33 34.235854 -118.596641 141 3991ft 219kts
21-Nov-20 09:34 34.189345 -118.551526 127 3229ft 210kts
21-Nov-20 09:35 34.180512 -118.482535 82 2984ft 198kts
21-Nov-20 09:36 34.191788 -118.436914 68 2702ft 126kts
21-Nov-20 09:37 34.198243 -118.396601 89 1402ft 123kts
21-Nov-20 09:38 34.197783 -118.359826 86 780ft 59kts
21-Nov-20 09:39 34.198618 -118.357994 357 780ft 2kts
21-Nov-20 09:40 34.200030 -118.359530 346 780ft 0kts

Navigation Log

Ident Type
Flight plan parsing failed, navigation log unavailable